sensor_id;sensor_type;location;lat;lon;timestamp;P1;durP1;ratioP1;P2;durP2;ratioP2
40244;SDS011;25963;42.694;23.600;2023-08-08T00:01:12;3.33;;;1.70;;
40244;SDS011;25963;42.694;23.600;2023-08-08T00:03:37;1.80;;;1.27;;
40244;SDS011;25963;42.694;23.600;2023-08-08T00:06:03;3.17;;;1.40;;
40244;SDS011;25963;42.694;23.600;2023-08-08T00:08:28;3.10;;;1.25;;
40244;SDS011;25963;42.694;23.600;2023-08-08T00:10:53;2.13;;;1.40;;
40244;SDS011;25963;42.694;23.600;2023-08-08T00:13:19;3.17;;;1.45;;
40244;SDS011;25963;42.694;23.600;2023-08-08T00:15:45;1.65;;;1.50;;
40244;SDS011;25963;42.694;23.600;2023-08-08T00:18:10;7.43;;;1.50;;
40244;SDS011;25963;42.694;23.600;2023-08-08T00:20:36;1.75;;;1.15;;
40244;SDS011;25963;42.694;23.600;2023-08-08T00:23:01;2.55;;;1.25;;
40244;SDS011;25963;42.694;23.600;2023-08-08T00:25:27;1.70;;;1.23;;
40244;SDS011;25963;42.694;23.600;2023-08-08T00:27:52;3.92;;;1.45;;
40244;SDS011;25963;42.694;23.600;2023-08-08T00:30:18;2.95;;;1.50;;
40244;SDS011;25963;42.694;23.600;2023-08-08T00:32:43;1.17;;;1.05;;
40244;SDS011;25963;42.694;23.600;2023-08-08T00:35:09;3.00;;;1.23;;
40244;SDS011;25963;42.694;23.600;2023-08-08T00:37:35;2.83;;;1.30;;
40244;SDS011;25963;42.694;23.600;2023-08-08T00:40:00;3.70;;;1.30;;
40244;SDS011;25963;42.694;23.600;2023-08-08T00:42:26;1.95;;;1.10;;
40244;SDS011;25963;42.694;23.600;2023-08-08T00:44:51;1.58;;;1.48;;
40244;SDS011;25963;42.694;23.600;2023-08-08T00:47:17;2.03;;;1.67;;
40244;SDS011;25963;42.694;23.600;2023-08-08T00:49:42;3.00;;;1.40;;
40244;SDS011;25963;42.694;23.600;2023-08-08T00:52:11;1.90;;;1.73;;
40244;SDS011;25963;42.694;23.600;2023-08-08T00:54:37;1.42;;;1.23;;
40244;SDS011;25963;42.694;23.600;2023-08-08T00:57:02;3.88;;;1.80;;
40244;SDS011;25963;42.694;23.600;2023-08-08T00:59:28;2.88;;;1.60;;
40244;SDS011;25963;42.694;23.600;2023-08-08T01:01:57;1.50;;;1.40;;
40244;SDS011;25963;42.694;23.600;2023-08-08T01:04:23;3.00;;;1.70;;
40244;SDS011;25963;42.694;23.600;2023-08-08T01:06:57;2.05;;;1.52;;
40244;SDS011;25963;42.694;23.600;2023-08-08T01:12:09;2.70;;;1.60;;
40244;SDS011;25963;42.694;23.600;2023-08-08T01:14:37;6.20;;;1.70;;
40244;SDS011;25963;42.694;23.600;2023-08-08T01:17:05;1.63;;;1.52;;
40244;SDS011;25963;42.694;23.600;2023-08-08T01:19:31;2.38;;;2.05;;
40244;SDS011;25963;42.694;23.600;2023-08-08T01:22:03;2.72;;;1.80;;
40244;SDS011;25963;42.694;23.600;2023-08-08T01:24:31;3.10;;;1.60;;
40244;SDS011;25963;42.694;23.600;2023-08-08T01:26:59;1.92;;;1.65;;
40244;SDS011;25963;42.694;23.600;2023-08-08T01:29:26;5.28;;;2.10;;
40244;SDS011;25963;42.694;23.600;2023-08-08T01:31:52;2.67;;;1.60;;
40244;SDS011;25963;42.694;23.600;2023-08-08T01:34:18;3.80;;;1.95;;
40244;SDS011;25963;42.694;23.600;2023-08-08T01:39:10;2.13;;;1.92;;
40244;SDS011;25963;42.694;23.600;2023-08-08T01:41:42;2.13;;;1.67;;
40244;SDS011;25963;42.694;23.600;2023-08-08T01:44:09;1.70;;;1.60;;
40244;SDS011;25963;42.694;23.600;2023-08-08T01:46:35;4.18;;;1.70;;
40244;SDS011;25963;42.694;23.600;2023-08-08T01:49:03;2.83;;;1.55;;
40244;SDS011;25963;42.694;23.600;2023-08-08T01:51:29;3.15;;;1.83;;
40244;SDS011;25963;42.694;23.600;2023-08-08T01:53:54;6.53;;;1.80;;
40244;SDS011;25963;42.694;23.600;2023-08-08T01:56:20;2.80;;;1.80;;
40244;SDS011;25963;42.694;23.600;2023-08-08T01:58:45;2.92;;;1.75;;
40244;SDS011;25963;42.694;23.600;2023-08-08T02:01:10;3.63;;;1.90;;
40244;SDS011;25963;42.694;23.600;2023-08-08T02:03:36;3.17;;;1.90;;
40244;SDS011;25963;42.694;23.600;2023-08-08T02:06:01;4.07;;;1.92;;
40244;SDS011;25963;42.694;23.600;2023-08-08T02:08:27;3.42;;;1.92;;
40244;SDS011;25963;42.694;23.600;2023-08-08T02:10:52;6.43;;;2.47;;
40244;SDS011;25963;42.694;23.600;2023-08-08T02:13:18;7.25;;;2.05;;
40244;SDS011;25963;42.694;23.600;2023-08-08T02:15:43;2.85;;;1.90;;
40244;SDS011;25963;42.694;23.600;2023-08-08T02:18:09;3.65;;;2.50;;
40244;SDS011;25963;42.694;23.600;2023-08-08T02:20:36;2.47;;;1.95;;
40244;SDS011;25963;42.694;23.600;2023-08-08T02:23:02;5.25;;;2.42;;
40244;SDS011;25963;42.694;23.600;2023-08-08T02:25:27;2.90;;;2.00;;
40244;SDS011;25963;42.694;23.600;2023-08-08T02:27:53;5.55;;;2.38;;
40244;SDS011;25963;42.694;23.600;2023-08-08T02:30:18;2.30;;;2.10;;
40244;SDS011;25963;42.694;23.600;2023-08-08T02:32:44;2.63;;;2.42;;
40244;SDS011;25963;42.694;23.600;2023-08-08T02:35:09;3.13;;;2.15;;
40244;SDS011;25963;42.694;23.600;2023-08-08T02:37:35;2.90;;;1.90;;
40244;SDS011;25963;42.694;23.600;2023-08-08T02:40:00;1.98;;;1.80;;
40244;SDS011;25963;42.694;23.600;2023-08-08T02:42:26;2.72;;;2.53;;
40244;SDS011;25963;42.694;23.600;2023-08-08T02:44:51;4.50;;;2.50;;
40244;SDS011;25963;42.694;23.600;2023-08-08T02:47:17;2.83;;;2.00;;
40244;SDS011;25963;42.694;23.600;2023-08-08T02:49:42;3.45;;;1.73;;
40244;SDS011;25963;42.694;23.600;2023-08-08T02:52:07;2.42;;;2.05;;
40244;SDS011;25963;42.694;23.600;2023-08-08T02:54:33;4.55;;;2.47;;
40244;SDS011;25963;42.694;23.600;2023-08-08T02:56:58;2.55;;;2.30;;
40244;SDS011;25963;42.694;23.600;2023-08-08T02:59:24;3.75;;;2.50;;
40244;SDS011;25963;42.694;23.600;2023-08-08T03:01:49;4.15;;;2.22;;
40244;SDS011;25963;42.694;23.600;2023-08-08T03:04:15;2.55;;;2.28;;
40244;SDS011;25963;42.694;23.600;2023-08-08T03:06:40;6.88;;;3.03;;
40244;SDS011;25963;42.694;23.600;2023-08-08T03:09:06;4.38;;;3.55;;
40244;SDS011;25963;42.694;23.600;2023-08-08T03:11:31;4.15;;;3.75;;
40244;SDS011;25963;42.694;23.600;2023-08-08T03:13:57;6.28;;;3.78;;
40244;SDS011;25963;42.694;23.600;2023-08-08T03:16:22;4.75;;;4.25;;
40244;SDS011;25963;42.694;23.600;2023-08-08T03:18:48;4.35;;;3.28;;
40244;SDS011;25963;42.694;23.600;2023-08-08T03:21:13;5.72;;;3.97;;
40244;SDS011;25963;42.694;23.600;2023-08-08T03:23:39;4.32;;;3.92;;
40244;SDS011;25963;42.694;23.600;2023-08-08T03:26:04;8.48;;;3.60;;
40244;SDS011;25963;42.694;23.600;2023-08-08T03:28:30;3.90;;;3.38;;
40244;SDS011;25963;42.694;23.600;2023-08-08T03:30:55;4.78;;;3.60;;
40244;SDS011;25963;42.694;23.600;2023-08-08T03:33:21;5.88;;;4.45;;
40244;SDS011;25963;42.694;23.600;2023-08-08T03:35:46;4.43;;;4.03;;
40244;SDS011;25963;42.694;23.600;2023-08-08T03:38:12;4.75;;;4.25;;
40244;SDS011;25963;42.694;23.600;2023-08-08T03:40:37;6.78;;;4.93;;
40244;SDS011;25963;42.694;23.600;2023-08-08T03:43:03;4.93;;;4.25;;
40244;SDS011;25963;42.694;23.600;2023-08-08T03:45:28;5.85;;;4.60;;
40244;SDS011;25963;42.694;23.600;2023-08-08T03:47:54;5.50;;;5.00;;
40244;SDS011;25963;42.694;23.600;2023-08-08T03:50:19;5.97;;;4.70;;
40244;SDS011;25963;42.694;23.600;2023-08-08T03:52:45;6.25;;;4.70;;
40244;SDS011;25963;42.694;23.600;2023-08-08T03:55:10;6.97;;;4.72;;
40244;SDS011;25963;42.694;23.600;2023-08-08T03:57:36;5.30;;;4.80;;
40244;SDS011;25963;42.694;23.600;2023-08-08T04:00:01;6.10;;;5.30;;
40244;SDS011;25963;42.694;23.600;2023-08-08T04:02:27;6.35;;;5.72;;
40244;SDS011;25963;42.694;23.600;2023-08-08T04:04:53;5.32;;;4.82;;
40244;SDS011;25963;42.694;23.600;2023-08-08T04:07:20;10.18;;;5.05;;
40244;SDS011;25963;42.694;23.600;2023-08-08T04:09:46;6.70;;;5.68;;
40244;SDS011;25963;42.694;23.600;2023-08-08T04:12:11;6.30;;;5.38;;
40244;SDS011;25963;42.694;23.600;2023-08-08T04:14:37;5.72;;;5.22;;
40244;SDS011;25963;42.694;23.600;2023-08-08T04:17:02;7.55;;;4.97;;
40244;SDS011;25963;42.694;23.600;2023-08-08T04:19:29;5.82;;;5.30;;
40244;SDS011;25963;42.694;23.600;2023-08-08T04:21:55;6.82;;;6.00;;
40244;SDS011;25963;42.694;23.600;2023-08-08T04:24:20;7.28;;;5.55;;
40244;SDS011;25963;42.694;23.600;2023-08-08T04:26:46;7.38;;;5.78;;
40244;SDS011;25963;42.694;23.600;2023-08-08T04:29:11;5.45;;;4.95;;
40244;SDS011;25963;42.694;23.600;2023-08-08T04:31:36;8.00;;;5.43;;
40244;SDS011;25963;42.694;23.600;2023-08-08T04:34:02;6.00;;;5.50;;
40244;SDS011;25963;42.694;23.600;2023-08-08T04:36:27;6.18;;;5.57;;
40244;SDS011;25963;42.694;23.600;2023-08-08T04:38:53;6.35;;;5.75;;
40244;SDS011;25963;42.694;23.600;2023-08-08T04:41:19;7.38;;;6.43;;
40244;SDS011;25963;42.694;23.600;2023-08-08T04:43:45;7.10;;;6.47;;
40244;SDS011;25963;42.694;23.600;2023-08-08T04:46:10;6.20;;;5.60;;
40244;SDS011;25963;42.694;23.600;2023-08-08T04:48:36;7.00;;;6.10;;
40244;SDS011;25963;42.694;23.600;2023-08-08T04:51:04;6.95;;;6.32;;
40244;SDS011;25963;42.694;23.600;2023-08-08T04:53:30;7.10;;;6.50;;
40244;SDS011;25963;42.694;23.600;2023-08-08T04:55:56;7.05;;;6.53;;
40244;SDS011;25963;42.694;23.600;2023-08-08T04:58:21;8.23;;;7.40;;
40244;SDS011;25963;42.694;23.600;2023-08-08T05:00:46;7.90;;;7.20;;
40244;SDS011;25963;42.694;23.600;2023-08-08T05:03:12;8.55;;;7.75;;
40244;SDS011;25963;42.694;23.600;2023-08-08T05:05:37;7.43;;;6.72;;
40244;SDS011;25963;42.694;23.600;2023-08-08T05:08:03;6.03;;;5.30;;
40244;SDS011;25963;42.694;23.600;2023-08-08T05:10:28;5.75;;;5.35;;
40244;SDS011;25963;42.694;23.600;2023-08-08T05:12:56;5.32;;;4.93;;
40244;SDS011;25963;42.694;23.600;2023-08-08T05:15:21;5.88;;;5.28;;
40244;SDS011;25963;42.694;23.600;2023-08-08T05:17:47;6.60;;;6.00;;
40244;SDS011;25963;42.694;23.600;2023-08-08T05:20:12;10.60;;;5.82;;
40244;SDS011;25963;42.694;23.600;2023-08-08T05:22:38;7.22;;;5.82;;
40244;SDS011;25963;42.694;23.600;2023-08-08T05:25:03;7.20;;;5.70;;
40244;SDS011;25963;42.694;23.600;2023-08-08T05:27:29;5.93;;;5.43;;
40244;SDS011;25963;42.694;23.600;2023-08-08T05:29:54;7.88;;;6.03;;
40244;SDS011;25963;42.694;23.600;2023-08-08T05:32:20;5.90;;;5.35;;
40244;SDS011;25963;42.694;23.600;2023-08-08T05:34:46;7.35;;;4.32;;
40244;SDS011;25963;42.694;23.600;2023-08-08T05:37:11;3.80;;;3.50;;
40244;SDS011;25963;42.694;23.600;2023-08-08T05:39:37;4.95;;;3.75;;
40244;SDS011;25963;42.694;23.600;2023-08-08T05:42:02;4.88;;;3.72;;
40244;SDS011;25963;42.694;23.600;2023-08-08T05:44:28;3.45;;;3.22;;
40244;SDS011;25963;42.694;23.600;2023-08-08T05:46:53;4.00;;;3.70;;
40244;SDS011;25963;42.694;23.600;2023-08-08T05:49:19;3.40;;;3.10;;
40244;SDS011;25963;42.694;23.600;2023-08-08T05:51:44;6.47;;;3.10;;
40244;SDS011;25963;42.694;23.600;2023-08-08T05:54:10;2.65;;;2.45;;
40244;SDS011;25963;42.694;23.600;2023-08-08T05:56:36;4.25;;;3.15;;
40244;SDS011;25963;42.694;23.600;2023-08-08T05:59:02;3.30;;;3.00;;
40244;SDS011;25963;42.694;23.600;2023-08-08T06:01:29;2.95;;;2.65;;
40244;SDS011;25963;42.694;23.600;2023-08-08T06:03:54;2.90;;;2.70;;
40244;SDS011;25963;42.694;23.600;2023-08-08T06:06:20;4.95;;;3.00;;
40244;SDS011;25963;42.694;23.600;2023-08-08T06:08:45;3.97;;;3.30;;
40244;SDS011;25963;42.694;23.600;2023-08-08T06:11:11;5.95;;;3.17;;
40244;SDS011;25963;42.694;23.600;2023-08-08T06:13:37;4.13;;;3.42;;
40244;SDS011;25963;42.694;23.600;2023-08-08T06:16:02;4.80;;;3.67;;
40244;SDS011;25963;42.694;23.600;2023-08-08T06:18:32;8.35;;;3.45;;
40244;SDS011;25963;42.694;23.600;2023-08-08T06:20:57;3.42;;;2.40;;
40244;SDS011;25963;42.694;23.600;2023-08-08T06:23:23;2.75;;;2.30;;
40244;SDS011;25963;42.694;23.600;2023-08-08T06:25:48;2.17;;;2.08;;
40244;SDS011;25963;42.694;23.600;2023-08-08T06:28:14;2.42;;;1.67;;
40244;SDS011;25963;42.694;23.600;2023-08-08T06:30:39;3.60;;;1.70;;
40244;SDS011;25963;42.694;23.600;2023-08-08T06:33:04;1.70;;;1.60;;
40244;SDS011;25963;42.694;23.600;2023-08-08T06:35:30;1.77;;;1.65;;
40244;SDS011;25963;42.694;23.600;2023-08-08T06:37:56;1.42;;;1.30;;
40244;SDS011;25963;42.694;23.600;2023-08-08T06:40:21;1.30;;;1.20;;
40244;SDS011;25963;42.694;23.600;2023-08-08T06:42:48;1.30;;;1.00;;
40244;SDS011;25963;42.694;23.600;2023-08-08T06:45:14;1.40;;;0.70;;
40244;SDS011;25963;42.694;23.600;2023-08-08T06:47:39;1.63;;;1.10;;
40244;SDS011;25963;42.694;23.600;2023-08-08T06:50:07;2.40;;;1.13;;
40244;SDS011;25963;42.694;23.600;2023-08-08T06:52:33;1.20;;;1.10;;
40244;SDS011;25963;42.694;23.600;2023-08-08T06:54:59;1.55;;;1.10;;
40244;SDS011;25963;42.694;23.600;2023-08-08T06:57:24;1.75;;;0.95;;
40244;SDS011;25963;42.694;23.600;2023-08-08T06:59:49;2.70;;;1.05;;
40244;SDS011;25963;42.694;23.600;2023-08-08T07:02:18;2.00;;;0.60;;
40244;SDS011;25963;42.694;23.600;2023-08-08T07:04:45;0.85;;;0.80;;
40244;SDS011;25963;42.694;23.600;2023-08-08T07:07:11;1.80;;;0.80;;
40244;SDS011;25963;42.694;23.600;2023-08-08T07:09:36;3.70;;;0.93;;
40244;SDS011;25963;42.694;23.600;2023-08-08T07:12:02;3.05;;;1.27;;
40244;SDS011;25963;42.694;23.600;2023-08-08T07:14:29;2.55;;;1.35;;
40244;SDS011;25963;42.694;23.600;2023-08-08T07:16:54;1.45;;;1.17;;
40244;SDS011;25963;42.694;23.600;2023-08-08T07:19:21;1.20;;;1.10;;
40244;SDS011;25963;42.694;23.600;2023-08-08T07:21:46;1.20;;;1.10;;
40244;SDS011;25963;42.694;23.600;2023-08-08T07:24:12;2.45;;;1.80;;
40244;SDS011;25963;42.694;23.600;2023-08-08T07:26:37;2.25;;;2.05;;
40244;SDS011;25963;42.694;23.600;2023-08-08T07:29:03;3.00;;;1.67;;
40244;SDS011;25963;42.694;23.600;2023-08-08T07:31:31;1.85;;;1.67;;
40244;SDS011;25963;42.694;23.600;2023-08-08T07:33:57;3.13;;;2.10;;
40244;SDS011;25963;42.694;23.600;2023-08-08T07:36:22;2.25;;;2.00;;
40244;SDS011;25963;42.694;23.600;2023-08-08T07:38:48;2.35;;;1.88;;
40244;SDS011;25963;42.694;23.600;2023-08-08T07:41:13;2.65;;;1.90;;
40244;SDS011;25963;42.694;23.600;2023-08-08T07:43:38;2.45;;;2.30;;
40244;SDS011;25963;42.694;23.600;2023-08-08T07:46:04;2.75;;;2.55;;
40244;SDS011;25963;42.694;23.600;2023-08-08T07:48:31;2.67;;;2.50;;
40244;SDS011;25963;42.694;23.600;2023-08-08T07:50:56;2.78;;;2.58;;
40244;SDS011;25963;42.694;23.600;2023-08-08T07:53:22;2.53;;;2.33;;
40244;SDS011;25963;42.694;23.600;2023-08-08T07:55:47;2.25;;;2.15;;
40244;SDS011;25963;42.694;23.600;2023-08-08T07:58:12;2.17;;;1.88;;
40244;SDS011;25963;42.694;23.600;2023-08-08T08:00:38;2.10;;;2.00;;
40244;SDS011;25963;42.694;23.600;2023-08-08T08:03:04;2.28;;;2.08;;
40244;SDS011;25963;42.694;23.600;2023-08-08T08:05:29;1.60;;;1.50;;
40244;SDS011;25963;42.694;23.600;2023-08-08T08:07:55;2.00;;;1.90;;
40244;SDS011;25963;42.694;23.600;2023-08-08T08:10:20;2.92;;;1.80;;
40244;SDS011;25963;42.694;23.600;2023-08-08T08:12:46;3.60;;;2.25;;
40244;SDS011;25963;42.694;23.600;2023-08-08T08:15:11;3.33;;;2.60;;
40244;SDS011;25963;42.694;23.600;2023-08-08T08:17:37;2.30;;;2.10;;
40244;SDS011;25963;42.694;23.600;2023-08-08T08:20:03;2.22;;;1.90;;
40244;SDS011;25963;42.694;23.600;2023-08-08T08:22:35;1.80;;;1.70;;
40244;SDS011;25963;42.694;23.600;2023-08-08T08:25:02;2.75;;;1.80;;
40244;SDS011;25963;42.694;23.600;2023-08-08T08:27:28;2.20;;;1.88;;
40244;SDS011;25963;42.694;23.600;2023-08-08T08:29:53;4.38;;;1.92;;
40244;SDS011;25963;42.694;23.600;2023-08-08T08:32:19;3.10;;;2.20;;
40244;SDS011;25963;42.694;23.600;2023-08-08T08:34:44;2.15;;;1.95;;
40244;SDS011;25963;42.694;23.600;2023-08-08T08:37:10;3.28;;;2.15;;
40244;SDS011;25963;42.694;23.600;2023-08-08T08:39:36;2.65;;;1.83;;
40244;SDS011;25963;42.694;23.600;2023-08-08T08:42:01;2.22;;;1.98;;
40244;SDS011;25963;42.694;23.600;2023-08-08T08:44:30;1.75;;;1.65;;
40244;SDS011;25963;42.694;23.600;2023-08-08T08:47:01;4.03;;;1.90;;
40244;SDS011;25963;42.694;23.600;2023-08-08T08:49:30;2.30;;;1.73;;
40244;SDS011;25963;42.694;23.600;2023-08-08T08:51:57;4.15;;;1.92;;
40244;SDS011;25963;42.694;23.600;2023-08-08T08:54:25;1.50;;;1.40;;
40244;SDS011;25963;42.694;23.600;2023-08-08T08:56:53;1.27;;;1.05;;
40244;SDS011;25963;42.694;23.600;2023-08-08T08:59:19;1.70;;;1.60;;
40244;SDS011;25963;42.694;23.600;2023-08-08T09:01:45;3.00;;;1.60;;
40244;SDS011;25963;42.694;23.600;2023-08-08T09:04:10;2.65;;;1.42;;
40244;SDS011;25963;42.694;23.600;2023-08-08T09:06:36;1.50;;;1.40;;
40244;SDS011;25963;42.694;23.600;2023-08-08T09:09:04;1.98;;;1.58;;
40244;SDS011;25963;42.694;23.600;2023-08-08T09:14:18;2.88;;;1.40;;
40244;SDS011;25963;42.694;23.600;2023-08-08T09:16:45;2.42;;;1.10;;
40244;SDS011;25963;42.694;23.600;2023-08-08T09:19:12;1.70;;;1.50;;
40244;SDS011;25963;42.694;23.600;2023-08-08T09:21:43;1.50;;;1.30;;
40244;SDS011;25963;42.694;23.600;2023-08-08T09:24:08;2.20;;;1.50;;
40244;SDS011;25963;42.694;23.600;2023-08-08T09:26:34;2.55;;;1.50;;
40244;SDS011;25963;42.694;23.600;2023-08-08T09:28:59;1.40;;;1.30;;
40244;SDS011;25963;42.694;23.600;2023-08-08T09:31:26;1.58;;;1.40;;
40244;SDS011;25963;42.694;23.600;2023-08-08T09:33:58;2.30;;;1.73;;
40244;SDS011;25963;42.694;23.600;2023-08-08T09:36:25;1.52;;;1.42;;
40244;SDS011;25963;42.694;23.600;2023-08-08T09:38:51;2.20;;;1.70;;
40244;SDS011;25963;42.694;23.600;2023-08-08T09:41:18;1.88;;;1.60;;
40244;SDS011;25963;42.694;23.600;2023-08-08T09:43:45;2.22;;;1.30;;
40244;SDS011;25963;42.694;23.600;2023-08-08T09:46:10;1.67;;;1.20;;
40244;SDS011;25963;42.694;23.600;2023-08-08T09:48:36;10.45;;;1.63;;
40244;SDS011;25963;42.694;23.600;2023-08-08T09:51:04;3.70;;;1.40;;
40244;SDS011;25963;42.694;23.600;2023-08-08T09:53:31;2.15;;;1.15;;
40244;SDS011;25963;42.694;23.600;2023-08-08T09:55:57;1.60;;;1.50;;
40244;SDS011;25963;42.694;23.600;2023-08-08T09:58:23;2.42;;;1.75;;
40244;SDS011;25963;42.694;23.600;2023-08-08T10:00:49;1.42;;;1.33;;
40244;SDS011;25963;42.694;23.600;2023-08-08T10:03:18;2.25;;;1.40;;
40244;SDS011;25963;42.694;23.600;2023-08-08T10:05:44;1.88;;;1.60;;
40244;SDS011;25963;42.694;23.600;2023-08-08T10:08:11;2.25;;;1.40;;
40244;SDS011;25963;42.694;23.600;2023-08-08T10:10:37;2.65;;;1.48;;
40244;SDS011;25963;42.694;23.600;2023-08-08T10:13:05;1.98;;;1.73;;
40244;SDS011;25963;42.694;23.600;2023-08-08T10:15:30;2.10;;;1.60;;
40244;SDS011;25963;42.694;23.600;2023-08-08T10:17:59;1.50;;;1.35;;
40244;SDS011;25963;42.694;23.600;2023-08-08T10:20:25;1.63;;;1.52;;
40244;SDS011;25963;42.694;23.600;2023-08-08T10:22:51;1.42;;;1.33;;
40244;SDS011;25963;42.694;23.600;2023-08-08T10:28:05;4.35;;;2.15;;
40244;SDS011;25963;42.694;23.600;2023-08-08T10:30:45;3.83;;;1.60;;
40244;SDS011;25963;42.694;23.600;2023-08-08T10:33:16;1.73;;;1.48;;
40244;SDS011;25963;42.694;23.600;2023-08-08T10:35:50;2.55;;;1.42;;
40244;SDS011;25963;42.694;23.600;2023-08-08T10:38:23;1.60;;;1.50;;
40244;SDS011;25963;42.694;23.600;2023-08-08T10:41:04;3.33;;;1.73;;
40244;SDS011;25963;42.694;23.600;2023-08-08T10:43:30;1.67;;;1.58;;
40244;SDS011;25963;42.694;23.600;2023-08-08T10:46:02;2.08;;;1.88;;
40244;SDS011;25963;42.694;23.600;2023-08-08T10:48:29;1.67;;;1.58;;
40244;SDS011;25963;42.694;23.600;2023-08-08T10:50:57;2.90;;;1.60;;
40244;SDS011;25963;42.694;23.600;2023-08-08T10:53:26;2.63;;;1.83;;
40244;SDS011;25963;42.694;23.600;2023-08-08T10:55:58;3.58;;;1.73;;
40244;SDS011;25963;42.694;23.600;2023-08-08T10:58:38;3.30;;;1.80;;
40244;SDS011;25963;42.694;23.600;2023-08-08T11:01:05;3.05;;;1.58;;
40244;SDS011;25963;42.694;23.600;2023-08-08T11:03:38;2.88;;;1.70;;
40244;SDS011;25963;42.694;23.600;2023-08-08T11:06:08;2.83;;;1.83;;
40244;SDS011;25963;42.694;23.600;2023-08-08T11:08:34;4.18;;;1.48;;
40244;SDS011;25963;42.694;23.600;2023-08-08T11:11:01;2.08;;;1.88;;
40244;SDS011;25963;42.694;23.600;2023-08-08T11:13:28;2.40;;;1.65;;
40244;SDS011;25963;42.694;23.600;2023-08-08T11:15:54;1.63;;;1.52;;
40244;SDS011;25963;42.694;23.600;2023-08-08T11:18:22;1.75;;;1.65;;
40244;SDS011;25963;42.694;23.600;2023-08-08T11:20:49;2.75;;;1.50;;
40244;SDS011;25963;42.694;23.600;2023-08-08T11:23:15;3.22;;;1.80;;
40244;SDS011;25963;42.694;23.600;2023-08-08T11:25:42;1.73;;;1.63;;
40244;SDS011;25963;42.694;23.600;2023-08-08T11:28:09;1.60;;;1.50;;
40244;SDS011;25963;42.694;23.600;2023-08-08T11:30:43;1.88;;;1.77;;
40244;SDS011;25963;42.694;23.600;2023-08-08T11:33:10;2.42;;;1.80;;
40244;SDS011;25963;42.694;23.600;2023-08-08T11:35:42;1.70;;;1.60;;
40244;SDS011;25963;42.694;23.600;2023-08-08T11:38:10;2.00;;;1.58;;
40244;SDS011;25963;42.694;23.600;2023-08-08T11:40:37;1.80;;;1.70;;
40244;SDS011;25963;42.694;23.600;2023-08-08T11:43:03;2.05;;;1.77;;
40244;SDS011;25963;42.694;23.600;2023-08-08T11:45:29;2.03;;;1.55;;
40244;SDS011;25963;42.694;23.600;2023-08-08T11:47:56;2.67;;;1.77;;
40244;SDS011;25963;42.694;23.600;2023-08-08T11:50:23;1.58;;;1.48;;
40244;SDS011;25963;42.694;23.600;2023-08-08T11:52:50;3.53;;;1.50;;
40244;SDS011;25963;42.694;23.600;2023-08-08T11:55:18;1.40;;;1.30;;
40244;SDS011;25963;42.694;23.600;2023-08-08T11:57:47;1.45;;;1.35;;
40244;SDS011;25963;42.694;23.600;2023-08-08T12:00:14;3.38;;;1.60;;
40244;SDS011;25963;42.694;23.600;2023-08-08T12:02:40;2.00;;;1.40;;
40244;SDS011;25963;42.694;23.600;2023-08-08T12:05:08;2.95;;;1.60;;
40244;SDS011;25963;42.694;23.600;2023-08-08T12:07:36;1.70;;;1.60;;
40244;SDS011;25963;42.694;23.600;2023-08-08T12:10:03;3.30;;;1.77;;
40244;SDS011;25963;42.694;23.600;2023-08-08T12:12:31;1.70;;;1.60;;
40244;SDS011;25963;42.694;23.600;2023-08-08T12:14:58;1.77;;;1.58;;
40244;SDS011;25963;42.694;23.600;2023-08-08T12:17:24;3.00;;;1.45;;
40244;SDS011;25963;42.694;23.600;2023-08-08T12:19:50;1.63;;;1.40;;
40244;SDS011;25963;42.694;23.600;2023-08-08T12:22:16;1.60;;;1.33;;
40244;SDS011;25963;42.694;23.600;2023-08-08T12:24:41;1.13;;;1.02;;
40244;SDS011;25963;42.694;23.600;2023-08-08T12:27:07;1.65;;;1.30;;
40244;SDS011;25963;42.694;23.600;2023-08-08T12:29:32;1.88;;;1.77;;
40244;SDS011;25963;42.694;23.600;2023-08-08T12:31:58;1.50;;;1.33;;
40244;SDS011;25963;42.694;23.600;2023-08-08T12:34:23;2.10;;;1.77;;
40244;SDS011;25963;42.694;23.600;2023-08-08T12:36:48;1.33;;;1.23;;
40244;SDS011;25963;42.694;23.600;2023-08-08T12:39:14;1.70;;;1.50;;
40244;SDS011;25963;42.694;23.600;2023-08-08T12:41:40;1.15;;;1.13;;
40244;SDS011;25963;42.694;23.600;2023-08-08T12:44:05;2.60;;;1.35;;
40244;SDS011;25963;42.694;23.600;2023-08-08T12:46:33;1.25;;;1.10;;
40244;SDS011;25963;42.694;23.600;2023-08-08T12:48:58;1.42;;;1.20;;
40244;SDS011;25963;42.694;23.600;2023-08-08T12:51:24;1.67;;;0.90;;
40244;SDS011;25963;42.694;23.600;2023-08-08T12:53:49;1.27;;;1.15;;
40244;SDS011;25963;42.694;23.600;2023-08-08T12:56:15;1.10;;;1.00;;
40244;SDS011;25963;42.694;23.600;2023-08-08T12:58:40;0.93;;;0.80;;
40244;SDS011;25963;42.694;23.600;2023-08-08T13:01:06;1.17;;;1.08;;
40244;SDS011;25963;42.694;23.600;2023-08-08T13:03:32;1.65;;;0.95;;
40244;SDS011;25963;42.694;23.600;2023-08-08T13:05:59;1.13;;;1.02;;
40244;SDS011;25963;42.694;23.600;2023-08-08T13:08:24;2.03;;;0.95;;
40244;SDS011;25963;42.694;23.600;2023-08-08T13:10:50;2.35;;;1.10;;
40244;SDS011;25963;42.694;23.600;2023-08-08T13:13:16;1.38;;;1.27;;
40244;SDS011;25963;42.694;23.600;2023-08-08T13:15:41;1.15;;;1.05;;
40244;SDS011;25963;42.694;23.600;2023-08-08T13:18:06;2.03;;;1.30;;
40244;SDS011;25963;42.694;23.600;2023-08-08T13:20:32;1.38;;;1.30;;
40244;SDS011;25963;42.694;23.600;2023-08-08T13:22:57;3.42;;;1.15;;
40244;SDS011;25963;42.694;23.600;2023-08-08T13:25:23;3.15;;;1.05;;
40244;SDS011;25963;42.694;23.600;2023-08-08T13:27:48;1.73;;;1.08;;
40244;SDS011;25963;42.694;23.600;2023-08-08T13:30:14;1.30;;;1.20;;
40244;SDS011;25963;42.694;23.600;2023-08-08T13:32:42;1.20;;;1.10;;
40244;SDS011;25963;42.694;23.600;2023-08-08T13:35:07;1.52;;;1.42;;
40244;SDS011;25963;42.694;23.600;2023-08-08T13:37:33;1.42;;;1.00;;
40244;SDS011;25963;42.694;23.600;2023-08-08T13:40:01;1.05;;;1.02;;
40244;SDS011;25963;42.694;23.600;2023-08-08T13:42:27;3.42;;;1.10;;
40244;SDS011;25963;42.694;23.600;2023-08-08T13:44:52;1.40;;;1.30;;
40244;SDS011;25963;42.694;23.600;2023-08-08T13:47:18;0.95;;;0.90;;
40244;SDS011;25963;42.694;23.600;2023-08-08T13:49:43;3.40;;;1.30;;
40244;SDS011;25963;42.694;23.600;2023-08-08T13:52:09;1.75;;;1.10;;
40244;SDS011;25963;42.694;23.600;2023-08-08T13:54:35;2.58;;;1.15;;
40244;SDS011;25963;42.694;23.600;2023-08-08T13:57:00;0.90;;;0.90;;
40244;SDS011;25963;42.694;23.600;2023-08-08T13:59:25;1.02;;;0.90;;
40244;SDS011;25963;42.694;23.600;2023-08-08T14:01:51;3.35;;;1.50;;
40244;SDS011;25963;42.694;23.600;2023-08-08T14:04:17;3.13;;;1.60;;
40244;SDS011;25963;42.694;23.600;2023-08-08T14:06:42;1.10;;;1.10;;
40244;SDS011;25963;42.694;23.600;2023-08-08T14:09:08;2.40;;;1.17;;
40244;SDS011;25963;42.694;23.600;2023-08-08T14:11:33;0.93;;;0.93;;
40244;SDS011;25963;42.694;23.600;2023-08-08T14:13:59;1.40;;;1.30;;
40244;SDS011;25963;42.694;23.600;2023-08-08T14:16:24;1.25;;;1.00;;
40244;SDS011;25963;42.694;23.600;2023-08-08T14:18:50;1.00;;;1.00;;
40244;SDS011;25963;42.694;23.600;2023-08-08T14:21:15;1.52;;;1.30;;
40244;SDS011;25963;42.694;23.600;2023-08-08T14:23:40;2.45;;;1.80;;
40244;SDS011;25963;42.694;23.600;2023-08-08T14:26:06;2.42;;;2.17;;
40244;SDS011;25963;42.694;23.600;2023-08-08T14:28:31;5.40;;;4.15;;
40244;SDS011;25963;42.694;23.600;2023-08-08T14:30:57;2.00;;;1.60;;
40244;SDS011;25963;42.694;23.600;2023-08-08T14:33:23;1.30;;;1.23;;
40244;SDS011;25963;42.694;23.600;2023-08-08T14:35:48;3.58;;;1.10;;
40244;SDS011;25963;42.694;23.600;2023-08-08T14:38:14;1.00;;;1.00;;